<?xml version="1.0" encoding="UTF-8" standalone="no" ?>
<gpx xmlns="http://www.topografix.com/GPX/1/1" xmlns:xsi="http://www.w3.org/2001/XMLSchema-instance" xsi:schemaLocation="http://www.topografix.com/GPX/1/1 http://www.topografix.com/GPX/1/1/gpx.xsd" version="1.1" creator="VisuGPX - https://www.visugpx.com">
  <metadata>
    <name>Presqu'île de Casteljau - La Grotte du Renard</name>
    <desc><![CDATA[Ne convient pas au VTT (ça serait 1/3 de portage au moins!!) Balade en famille super sympa avec des vues du Chassezac magnifiques et pleins de rochers impressionnants.]]></desc>
  </metadata>
  <wpt lat="44.39615" lon="4.19611">
    <ele>136.2</ele>
    <name><![CDATA[Parking]]></name>
  </wpt>
  <wpt lat="44.40134" lon="4.19287">
    <ele>152</ele>
    <name><![CDATA[Bifurcation à droite]]></name>
  </wpt>
  <wpt lat="44.40379" lon="4.19638">
    <ele>192.4</ele>
    <name><![CDATA[Bifurcation et changement de balisage]]></name>
  </wpt>
  <wpt lat="44.40439" lon="4.19908">
    <ele>168.4</ele>
    <name><![CDATA[Panorama]]></name>
  </wpt>
  <wpt lat="44.40539" lon="4.19824">
    <ele>190.5</ele>
    <name><![CDATA[Croisement, changement de balisage]]></name>
  </wpt>
  <wpt lat="44.39618" lon="4.19596">
    <ele>137.5</ele>
    <name><![CDATA[Parking]]></name>
  </wpt>
  <trk>
    <name><![CDATA[Presqu'île de Casteljau - La Grotte du Renard]]></name>
    <extensions>
      <line xmlns="http://www.topografix.com/GPX/gpx_style/0/2">
        <color>0000FF</color>
        <width>4</width>
      </line>
    </extensions>
    <trkseg>
      <trkpt lat="44.39615" lon="4.19611">
        <ele>136</ele>
        <time>2021-03-21T08:54:27+01:00</time>
      </trkpt>
      <trkpt lat="44.39613" lon="4.19603">
        <ele>136</ele>
        <time>2021-03-21T08:54:32+01:00</time>
      </trkpt>
      <trkpt lat="44.39602" lon="4.19596">
        <ele>133</ele>
        <time>2021-03-21T08:54:37+01:00</time>
      </trkpt>
      <trkpt lat="44.39596" lon="4.19578">
        <ele>131</ele>
        <time>2021-03-21T08:54:42+01:00</time>
      </trkpt>
      <trkpt lat="44.39598" lon="4.19567">
        <ele>131</ele>
        <time>2021-03-21T08:54:47+01:00</time>
      </trkpt>
      <trkpt lat="44.39595" lon="4.19565">
        <ele>130</ele>
        <time>2021-03-21T08:54:52+01:00</time>
      </trkpt>
      <trkpt lat="44.39597" lon="4.1954">
        <ele>129</ele>
        <time>2021-03-21T08:54:57+01:00</time>
      </trkpt>
      <trkpt lat="44.39611" lon="4.19524">
        <ele>132</ele>
        <time>2021-03-21T08:55:02+01:00</time>
      </trkpt>
      <trkpt lat="44.39647" lon="4.19497">
        <ele>139</ele>
        <time>2021-03-21T08:55:07+01:00</time>
      </trkpt>
      <trkpt lat="44.39752" lon="4.19445">
        <ele>141</ele>
        <time>2021-03-21T08:55:12+01:00</time>
      </trkpt>
      <trkpt lat="44.39756" lon="4.19419">
        <ele>132</ele>
        <time>2021-03-21T08:55:17+01:00</time>
      </trkpt>
      <trkpt lat="44.39834" lon="4.19364">
        <ele>137</ele>
        <time>2021-03-21T08:55:22+01:00</time>
      </trkpt>
      <trkpt lat="44.3992" lon="4.19327">
        <ele>156</ele>
        <time>2021-03-21T08:55:27+01:00</time>
      </trkpt>
      <trkpt lat="44.39979" lon="4.19323">
        <ele>163</ele>
        <time>2021-03-21T08:55:32+01:00</time>
      </trkpt>
      <trkpt lat="44.40014" lon="4.19306">
        <ele>161</ele>
        <time>2021-03-21T08:55:37+01:00</time>
      </trkpt>
      <trkpt lat="44.4009" lon="4.1929">
        <ele>152</ele>
        <time>2021-03-21T08:55:42+01:00</time>
      </trkpt>
      <trkpt lat="44.40134" lon="4.19287">
        <ele>152</ele>
        <time>2021-03-21T08:55:47+01:00</time>
      </trkpt>
      <trkpt lat="44.4015" lon="4.19308">
        <ele>159</ele>
        <time>2021-03-21T08:55:52+01:00</time>
      </trkpt>
      <trkpt lat="44.40146" lon="4.19351">
        <ele>172</ele>
        <time>2021-03-21T08:55:57+01:00</time>
      </trkpt>
      <trkpt lat="44.40138" lon="4.19365">
        <ele>175</ele>
        <time>2021-03-21T08:56:02+01:00</time>
      </trkpt>
      <trkpt lat="44.40142" lon="4.19404">
        <ele>185</ele>
        <time>2021-03-21T08:56:07+01:00</time>
      </trkpt>
      <trkpt lat="44.40177" lon="4.19413">
        <ele>187</ele>
        <time>2021-03-21T08:56:12+01:00</time>
      </trkpt>
      <trkpt lat="44.4018" lon="4.19427">
        <ele>189</ele>
        <time>2021-03-21T08:56:17+01:00</time>
      </trkpt>
      <trkpt lat="44.40156" lon="4.1948">
        <ele>194</ele>
        <time>2021-03-21T08:56:22+01:00</time>
      </trkpt>
      <trkpt lat="44.40155" lon="4.195">
        <ele>196</ele>
        <time>2021-03-21T08:56:27+01:00</time>
      </trkpt>
      <trkpt lat="44.40168" lon="4.19515">
        <ele>196</ele>
        <time>2021-03-21T08:56:32+01:00</time>
      </trkpt>
      <trkpt lat="44.40178" lon="4.19551">
        <ele>197</ele>
        <time>2021-03-21T08:56:37+01:00</time>
      </trkpt>
      <trkpt lat="44.40192" lon="4.19545">
        <ele>198</ele>
        <time>2021-03-21T08:56:42+01:00</time>
      </trkpt>
      <trkpt lat="44.40194" lon="4.1953">
        <ele>198</ele>
        <time>2021-03-21T08:56:47+01:00</time>
      </trkpt>
      <trkpt lat="44.40211" lon="4.19511">
        <ele>200</ele>
        <time>2021-03-21T08:56:52+01:00</time>
      </trkpt>
      <trkpt lat="44.40251" lon="4.19514">
        <ele>202</ele>
        <time>2021-03-21T08:56:57+01:00</time>
      </trkpt>
      <trkpt lat="44.40272" lon="4.19512">
        <ele>201</ele>
        <time>2021-03-21T08:57:02+01:00</time>
      </trkpt>
      <trkpt lat="44.40299" lon="4.1952">
        <ele>198</ele>
        <time>2021-03-21T08:57:07+01:00</time>
      </trkpt>
      <trkpt lat="44.40315" lon="4.195">
        <ele>197</ele>
        <time>2021-03-21T08:57:12+01:00</time>
      </trkpt>
      <trkpt lat="44.4035" lon="4.19516">
        <ele>189</ele>
        <time>2021-03-21T08:57:17+01:00</time>
      </trkpt>
      <trkpt lat="44.40361" lon="4.19467">
        <ele>171</ele>
        <time>2021-03-21T08:57:22+01:00</time>
      </trkpt>
      <trkpt lat="44.40357" lon="4.195">
        <ele>184</ele>
        <time>2021-03-21T08:57:27+01:00</time>
      </trkpt>
      <trkpt lat="44.40368" lon="4.19506">
        <ele>180</ele>
        <time>2021-03-21T08:57:32+01:00</time>
      </trkpt>
      <trkpt lat="44.40367" lon="4.19544">
        <ele>187</ele>
        <time>2021-03-21T08:57:37+01:00</time>
      </trkpt>
      <trkpt lat="44.4038" lon="4.19581">
        <ele>191</ele>
        <time>2021-03-21T08:57:42+01:00</time>
      </trkpt>
      <trkpt lat="44.40377" lon="4.19596">
        <ele>192</ele>
        <time>2021-03-21T08:57:47+01:00</time>
      </trkpt>
      <trkpt lat="44.40386" lon="4.19611">
        <ele>191</ele>
        <time>2021-03-21T08:57:52+01:00</time>
      </trkpt>
      <trkpt lat="44.40379" lon="4.19638">
        <ele>192</ele>
        <time>2021-03-21T08:57:57+01:00</time>
      </trkpt>
      <trkpt lat="44.40363" lon="4.19645">
        <ele>193</ele>
        <time>2021-03-21T08:58:02+01:00</time>
      </trkpt>
      <trkpt lat="44.4035" lon="4.19644">
        <ele>193</ele>
        <time>2021-03-21T08:58:07+01:00</time>
      </trkpt>
      <trkpt lat="44.4034" lon="4.19658">
        <ele>192</ele>
        <time>2021-03-21T08:58:12+01:00</time>
      </trkpt>
      <trkpt lat="44.40297" lon="4.19691">
        <ele>190</ele>
        <time>2021-03-21T08:58:17+01:00</time>
      </trkpt>
      <trkpt lat="44.4027" lon="4.19685">
        <ele>189</ele>
        <time>2021-03-21T08:58:22+01:00</time>
      </trkpt>
      <trkpt lat="44.40243" lon="4.19681">
        <ele>188</ele>
        <time>2021-03-21T08:58:27+01:00</time>
      </trkpt>
      <trkpt lat="44.40222" lon="4.19703">
        <ele>186</ele>
        <time>2021-03-21T08:58:32+01:00</time>
      </trkpt>
      <trkpt lat="44.40213" lon="4.19711">
        <ele>185</ele>
        <time>2021-03-21T08:58:37+01:00</time>
      </trkpt>
      <trkpt lat="44.40191" lon="4.1973">
        <ele>182</ele>
        <time>2021-03-21T08:58:42+01:00</time>
      </trkpt>
      <trkpt lat="44.4018" lon="4.19748">
        <ele>180</ele>
        <time>2021-03-21T08:58:47+01:00</time>
      </trkpt>
      <trkpt lat="44.40203" lon="4.19751">
        <ele>180</ele>
        <time>2021-03-21T08:58:52+01:00</time>
      </trkpt>
      <trkpt lat="44.40209" lon="4.19741">
        <ele>182</ele>
        <time>2021-03-21T08:58:57+01:00</time>
      </trkpt>
      <trkpt lat="44.40233" lon="4.19741">
        <ele>182</ele>
        <time>2021-03-21T08:59:02+01:00</time>
      </trkpt>
      <trkpt lat="44.40237" lon="4.19749">
        <ele>181</ele>
        <time>2021-03-21T08:59:07+01:00</time>
      </trkpt>
      <trkpt lat="44.40221" lon="4.19768">
        <ele>179</ele>
        <time>2021-03-21T08:59:12+01:00</time>
      </trkpt>
      <trkpt lat="44.40203" lon="4.19807">
        <ele>175</ele>
        <time>2021-03-21T08:59:17+01:00</time>
      </trkpt>
      <trkpt lat="44.40199" lon="4.19843">
        <ele>170</ele>
        <time>2021-03-21T08:59:22+01:00</time>
      </trkpt>
      <trkpt lat="44.40212" lon="4.19842">
        <ele>171</ele>
        <time>2021-03-21T08:59:27+01:00</time>
      </trkpt>
      <trkpt lat="44.40216" lon="4.19837">
        <ele>172</ele>
        <time>2021-03-21T08:59:32+01:00</time>
      </trkpt>
      <trkpt lat="44.40232" lon="4.19813">
        <ele>175</ele>
        <time>2021-03-21T08:59:37+01:00</time>
      </trkpt>
      <trkpt lat="44.40249" lon="4.19798">
        <ele>177</ele>
        <time>2021-03-21T08:59:42+01:00</time>
      </trkpt>
      <trkpt lat="44.40266" lon="4.19794">
        <ele>180</ele>
        <time>2021-03-21T08:59:47+01:00</time>
      </trkpt>
      <trkpt lat="44.40275" lon="4.19817">
        <ele>179</ele>
        <time>2021-03-21T08:59:52+01:00</time>
      </trkpt>
      <trkpt lat="44.40262" lon="4.19844">
        <ele>173</ele>
        <time>2021-03-21T08:59:57+01:00</time>
      </trkpt>
      <trkpt lat="44.40268" lon="4.19866">
        <ele>168</ele>
        <time>2021-03-21T09:00:02+01:00</time>
      </trkpt>
      <trkpt lat="44.40291" lon="4.19853">
        <ele>176</ele>
        <time>2021-03-21T09:00:07+01:00</time>
      </trkpt>
      <trkpt lat="44.40299" lon="4.19842">
        <ele>180</ele>
        <time>2021-03-21T09:00:12+01:00</time>
      </trkpt>
      <trkpt lat="44.40321" lon="4.19843">
        <ele>183</ele>
        <time>2021-03-21T09:00:17+01:00</time>
      </trkpt>
      <trkpt lat="44.40344" lon="4.19852">
        <ele>183</ele>
        <time>2021-03-21T09:00:22+01:00</time>
      </trkpt>
      <trkpt lat="44.40375" lon="4.19845">
        <ele>184</ele>
        <time>2021-03-21T09:00:27+01:00</time>
      </trkpt>
      <trkpt lat="44.4039" lon="4.19839">
        <ele>185</ele>
        <time>2021-03-21T09:00:32+01:00</time>
      </trkpt>
      <trkpt lat="44.40404" lon="4.19822">
        <ele>188</ele>
        <time>2021-03-21T09:00:37+01:00</time>
      </trkpt>
      <trkpt lat="44.40412" lon="4.19807">
        <ele>189</ele>
        <time>2021-03-21T09:00:42+01:00</time>
      </trkpt>
      <trkpt lat="44.40413" lon="4.19776">
        <ele>192</ele>
        <time>2021-03-21T09:00:47+01:00</time>
      </trkpt>
      <trkpt lat="44.40418" lon="4.19754">
        <ele>194</ele>
        <time>2021-03-21T09:00:52+01:00</time>
      </trkpt>
      <trkpt lat="44.40439" lon="4.19757">
        <ele>192</ele>
        <time>2021-03-21T09:00:57+01:00</time>
      </trkpt>
      <trkpt lat="44.40456" lon="4.19777">
        <ele>190</ele>
        <time>2021-03-21T09:01:02+01:00</time>
      </trkpt>
      <trkpt lat="44.40459" lon="4.19808">
        <ele>189</ele>
        <time>2021-03-21T09:01:07+01:00</time>
      </trkpt>
      <trkpt lat="44.40442" lon="4.19862">
        <ele>180</ele>
        <time>2021-03-21T09:01:12+01:00</time>
      </trkpt>
      <trkpt lat="44.40429" lon="4.19884">
        <ele>174</ele>
        <time>2021-03-21T09:01:17+01:00</time>
      </trkpt>
      <trkpt lat="44.40434" lon="4.19898">
        <ele>170</ele>
        <time>2021-03-21T09:01:22+01:00</time>
      </trkpt>
      <trkpt lat="44.40432" lon="4.19907">
        <ele>168</ele>
        <time>2021-03-21T09:01:27+01:00</time>
      </trkpt>
      <trkpt lat="44.40439" lon="4.19908">
        <ele>168</ele>
        <time>2021-03-21T09:01:32+01:00</time>
      </trkpt>
      <trkpt lat="44.40442" lon="4.19904">
        <ele>170</ele>
        <time>2021-03-21T09:01:37+01:00</time>
      </trkpt>
      <trkpt lat="44.40451" lon="4.19895">
        <ele>173</ele>
        <time>2021-03-21T09:01:42+01:00</time>
      </trkpt>
      <trkpt lat="44.40468" lon="4.1989">
        <ele>175</ele>
        <time>2021-03-21T09:01:47+01:00</time>
      </trkpt>
      <trkpt lat="44.40478" lon="4.19881">
        <ele>178</ele>
        <time>2021-03-21T09:01:52+01:00</time>
      </trkpt>
      <trkpt lat="44.40485" lon="4.19863">
        <ele>182</ele>
        <time>2021-03-21T09:01:57+01:00</time>
      </trkpt>
      <trkpt lat="44.40485" lon="4.19848">
        <ele>185</ele>
        <time>2021-03-21T09:02:02+01:00</time>
      </trkpt>
      <trkpt lat="44.40491" lon="4.19845">
        <ele>186</ele>
        <time>2021-03-21T09:02:07+01:00</time>
      </trkpt>
      <trkpt lat="44.40503" lon="4.19822">
        <ele>189</ele>
        <time>2021-03-21T09:02:12+01:00</time>
      </trkpt>
      <trkpt lat="44.4051" lon="4.19832">
        <ele>190</ele>
        <time>2021-03-21T09:02:17+01:00</time>
      </trkpt>
      <trkpt lat="44.40521" lon="4.1983">
        <ele>190</ele>
        <time>2021-03-21T09:02:22+01:00</time>
      </trkpt>
      <trkpt lat="44.40539" lon="4.19824">
        <ele>191</ele>
        <time>2021-03-21T09:02:27+01:00</time>
      </trkpt>
      <trkpt lat="44.40533" lon="4.19857">
        <ele>189</ele>
        <time>2021-03-21T09:02:32+01:00</time>
      </trkpt>
      <trkpt lat="44.40521" lon="4.19874">
        <ele>185</ele>
        <time>2021-03-21T09:02:37+01:00</time>
      </trkpt>
      <trkpt lat="44.40501" lon="4.19895">
        <ele>177</ele>
        <time>2021-03-21T09:02:42+01:00</time>
      </trkpt>
      <trkpt lat="44.40505" lon="4.19907">
        <ele>176</ele>
        <time>2021-03-21T09:02:47+01:00</time>
      </trkpt>
      <trkpt lat="44.40501" lon="4.19927">
        <ele>167</ele>
        <time>2021-03-21T09:02:52+01:00</time>
      </trkpt>
      <trkpt lat="44.40472" lon="4.19931">
        <ele>163</ele>
        <time>2021-03-21T09:02:57+01:00</time>
      </trkpt>
      <trkpt lat="44.40438" lon="4.19925">
        <ele>162</ele>
        <time>2021-03-21T09:03:02+01:00</time>
      </trkpt>
      <trkpt lat="44.4039" lon="4.19931">
        <ele>159</ele>
        <time>2021-03-21T09:03:07+01:00</time>
      </trkpt>
      <trkpt lat="44.40347" lon="4.19923">
        <ele>164</ele>
        <time>2021-03-21T09:03:12+01:00</time>
      </trkpt>
      <trkpt lat="44.40285" lon="4.19913">
        <ele>160</ele>
        <time>2021-03-21T09:03:17+01:00</time>
      </trkpt>
      <trkpt lat="44.40235" lon="4.1991">
        <ele>152</ele>
        <time>2021-03-21T09:03:22+01:00</time>
      </trkpt>
      <trkpt lat="44.40222" lon="4.1991">
        <ele>151</ele>
        <time>2021-03-21T09:03:27+01:00</time>
      </trkpt>
      <trkpt lat="44.40192" lon="4.19924">
        <ele>144</ele>
        <time>2021-03-21T09:03:32+01:00</time>
      </trkpt>
      <trkpt lat="44.40151" lon="4.19955">
        <ele>136</ele>
        <time>2021-03-21T09:03:37+01:00</time>
      </trkpt>
      <trkpt lat="44.40124" lon="4.19951">
        <ele>143</ele>
        <time>2021-03-21T09:03:42+01:00</time>
      </trkpt>
      <trkpt lat="44.40107" lon="4.19957">
        <ele>145</ele>
        <time>2021-03-21T09:03:47+01:00</time>
      </trkpt>
      <trkpt lat="44.40094" lon="4.19966">
        <ele>144</ele>
        <time>2021-03-21T09:03:52+01:00</time>
      </trkpt>
      <trkpt lat="44.40094" lon="4.19995">
        <ele>133</ele>
        <time>2021-03-21T09:03:57+01:00</time>
      </trkpt>
      <trkpt lat="44.40048" lon="4.20044">
        <ele>128</ele>
        <time>2021-03-21T09:04:02+01:00</time>
      </trkpt>
      <trkpt lat="44.40051" lon="4.20055">
        <ele>126</ele>
        <time>2021-03-21T09:04:07+01:00</time>
      </trkpt>
      <trkpt lat="44.40002" lon="4.20108">
        <ele>124</ele>
        <time>2021-03-21T09:04:12+01:00</time>
      </trkpt>
      <trkpt lat="44.39923" lon="4.20142">
        <ele>124</ele>
        <time>2021-03-21T09:04:17+01:00</time>
      </trkpt>
      <trkpt lat="44.39907" lon="4.20132">
        <ele>124</ele>
        <time>2021-03-21T09:04:22+01:00</time>
      </trkpt>
      <trkpt lat="44.39907" lon="4.20118">
        <ele>125</ele>
        <time>2021-03-21T09:04:27+01:00</time>
      </trkpt>
      <trkpt lat="44.3991" lon="4.20101">
        <ele>126</ele>
        <time>2021-03-21T09:04:32+01:00</time>
      </trkpt>
      <trkpt lat="44.39917" lon="4.20076">
        <ele>128</ele>
        <time>2021-03-21T09:04:37+01:00</time>
      </trkpt>
      <trkpt lat="44.39915" lon="4.20016">
        <ele>137</ele>
        <time>2021-03-21T09:04:42+01:00</time>
      </trkpt>
      <trkpt lat="44.39902" lon="4.19998">
        <ele>139</ele>
        <time>2021-03-21T09:04:47+01:00</time>
      </trkpt>
      <trkpt lat="44.39871" lon="4.19978">
        <ele>142</ele>
        <time>2021-03-21T09:04:52+01:00</time>
      </trkpt>
      <trkpt lat="44.39851" lon="4.19968">
        <ele>142</ele>
        <time>2021-03-21T09:04:57+01:00</time>
      </trkpt>
      <trkpt lat="44.3983" lon="4.19957">
        <ele>142</ele>
        <time>2021-03-21T09:05:02+01:00</time>
      </trkpt>
      <trkpt lat="44.39817" lon="4.19936">
        <ele>143</ele>
        <time>2021-03-21T09:05:07+01:00</time>
      </trkpt>
      <trkpt lat="44.39798" lon="4.19935">
        <ele>142</ele>
        <time>2021-03-21T09:05:12+01:00</time>
      </trkpt>
      <trkpt lat="44.39746" lon="4.19926">
        <ele>137</ele>
        <time>2021-03-21T09:05:17+01:00</time>
      </trkpt>
      <trkpt lat="44.39737" lon="4.19922">
        <ele>136</ele>
        <time>2021-03-21T09:05:22+01:00</time>
      </trkpt>
      <trkpt lat="44.39728" lon="4.19907">
        <ele>136</ele>
        <time>2021-03-21T09:05:27+01:00</time>
      </trkpt>
      <trkpt lat="44.39728" lon="4.19867">
        <ele>141</ele>
        <time>2021-03-21T09:05:32+01:00</time>
      </trkpt>
      <trkpt lat="44.39725" lon="4.19801">
        <ele>148</ele>
        <time>2021-03-21T09:05:37+01:00</time>
      </trkpt>
      <trkpt lat="44.39724" lon="4.19763">
        <ele>153</ele>
        <time>2021-03-21T09:05:42+01:00</time>
      </trkpt>
      <trkpt lat="44.39709" lon="4.19739">
        <ele>151</ele>
        <time>2021-03-21T09:05:47+01:00</time>
      </trkpt>
      <trkpt lat="44.39707" lon="4.19697">
        <ele>155</ele>
        <time>2021-03-21T09:05:52+01:00</time>
      </trkpt>
      <trkpt lat="44.39692" lon="4.19673">
        <ele>153</ele>
        <time>2021-03-21T09:05:57+01:00</time>
      </trkpt>
      <trkpt lat="44.39672" lon="4.1963">
        <ele>150</ele>
        <time>2021-03-21T09:06:02+01:00</time>
      </trkpt>
      <trkpt lat="44.39655" lon="4.19626">
        <ele>146</ele>
        <time>2021-03-21T09:06:07+01:00</time>
      </trkpt>
      <trkpt lat="44.39652" lon="4.19628">
        <ele>145</ele>
        <time>2021-03-21T09:06:12+01:00</time>
      </trkpt>
      <trkpt lat="44.39618" lon="4.19596">
        <ele>137</ele>
        <time>2021-03-21T09:06:17+01:00</time>
      </trkpt>
    </trkseg>
  </trk>
</gpx>